Time;durP1;ratioP1;P1;durP2;ratioP2;P2;SDS_P1;SDS_P2;PMS_P1;PMS_P2;Temp;Humidity;BMP_temperature;BMP_pressure;BME280_temperature;BME280_humidity;BME280_pressure;Samples;Min_cycle;Max_cycle;Signal;HPM_P1;HPM_P2
2021/01/10 00:00:27;;;;;;;21.30;13.70;;;;;;;;;;5045071;28;20424;-58
2021/01/10 00:02:53;;;;;;;19.07;12.73;;;;;;;;;;5068297;28;20466;-59
2021/01/10 00:05:20;;;;;;;20.03;13.20;;;;;;;;;;5038028;28;20515;-58
2021/01/10 00:07:47;;;;;;;17.43;13.13;;;;;;;;;;5051976;28;20512;-58
2021/01/10 00:10:13;;;;;;;20.80;12.90;;;;;;;;;;5049602;28;20519;-59
2021/01/10 00:12:39;;;;;;;17.30;11.97;;;;;;;;;;5058426;28;20424;-58
2021/01/10 00:15:09;;;;;;;17.27;12.13;;;;;;;;;;5049843;28;20432;-58
2021/01/10 00:17:39;;;;;;;16.70;13.07;;;;;;;;;;5039732;28;20449;-58
2021/01/10 00:20:06;;;;;;;15.93;11.90;;;;;;;;;;5066608;28;20423;-59
2021/01/10 00:22:32;;;;;;;19.77;12.23;;;;;;;;;;5032274;28;20866;-58
2021/01/10 00:24:58;;;;;;;15.27;11.60;;;;;;;;;;5049440;28;20415;-59
2021/01/10 00:27:26;;;;;;;18.37;12.60;;;;;;;;;;5043274;28;20478;-58
2021/01/10 00:29:52;;;;;;;18.13;12.40;;;;;;;;;;5053099;28;20537;-58
2021/01/10 00:32:18;;;;;;;19.27;13.00;;;;;;;;;;5055596;28;20510;-57
2021/01/10 00:34:44;;;;;;;16.97;12.37;;;;;;;;;;5037554;28;20423;-57
2021/01/10 00:37:14;;;;;;;19.10;12.97;;;;;;;;;;5073481;28;20952;-59
2021/01/10 00:39:41;;;;;;;19.70;13.30;;;;;;;;;;5042017;28;20708;-57
2021/01/10 00:42:14;;;;;;;18.63;13.53;;;;;;;;;;5035004;28;20771;-58
2021/01/10 00:44:40;;;;;;;17.47;12.47;;;;;;;;;;5052306;28;20498;-59
2021/01/10 00:47:06;;;;;;;18.80;12.30;;;;;;;;;;5062705;28;20937;-58
2021/01/10 00:49:33;;;;;;;18.73;12.00;;;;;;;;;;5055976;28;20427;-59
2021/01/10 00:51:59;;;;;;;17.43;11.83;;;;;;;;;;5053101;28;20419;-58
2021/01/10 00:54:25;;;;;;;18.50;13.03;;;;;;;;;;5035021;28;20443;-60
2021/01/10 00:56:51;;;;;;;17.53;12.23;;;;;;;;;;5061446;28;20454;-58
2021/01/10 00:59:17;;;;;;;18.13;12.30;;;;;;;;;;5054446;28;20450;-58
2021/01/10 01:01:43;;;;;;;19.43;11.73;;;;;;;;;;5062076;28;20485;-59
2021/01/10 01:04:10;;;;;;;19.80;13.23;;;;;;;;;;5052105;28;20459;-58
2021/01/10 01:06:36;;;;;;;19.80;12.13;;;;;;;;;;5053379;28;20427;-57
2021/01/10 01:09:03;;;;;;;17.70;11.33;;;;;;;;;;5054600;28;20420;-58
2021/01/10 01:11:34;;;;;;;17.67;12.13;;;;;;;;;;5052246;28;20869;-57
2021/01/10 01:14:00;;;;;;;20.23;12.83;;;;;;;;;;5051934;28;20423;-58
2021/01/10 01:16:26;;;;;;;20.20;12.43;;;;;;;;;;5064616;28;20518;-58
2021/01/10 01:18:52;;;;;;;17.73;12.50;;;;;;;;;;5053904;28;20961;-57
2021/01/10 01:21:19;;;;;;;16.50;12.07;;;;;;;;;;5053710;28;20933;-58
2021/01/10 01:23:45;;;;;;;16.63;11.93;;;;;;;;;;5070651;28;20493;-59
2021/01/10 01:26:15;;;;;;;16.67;11.27;;;;;;;;;;5036833;28;20431;-58
2021/01/10 01:28:43;;;;;;;19.23;12.47;;;;;;;;;;5058610;28;20419;-58
2021/01/10 01:31:09;;;;;;;18.83;13.00;;;;;;;;;;5054431;28;20517;-58
2021/01/10 01:33:35;;;;;;;17.33;12.37;;;;;;;;;;5061402;28;20424;-58
2021/01/10 01:36:01;;;;;;;17.50;12.40;;;;;;;;;;5051463;28;20992;-58
2021/01/10 01:38:28;;;;;;;18.03;11.83;;;;;;;;;;5034072;28;20416;-58
2021/01/10 01:41:00;;;;;;;18.57;11.37;;;;;;;;;;5052330;28;20208;-58
2021/01/10 01:43:27;;;;;;;18.43;12.00;;;;;;;;;;5051235;28;20419;-58
2021/01/10 01:45:53;;;;;;;17.87;11.30;;;;;;;;;;5051912;28;20522;-58
2021/01/10 01:48:19;;;;;;;15.53;11.07;;;;;;;;;;5052053;28;20477;-59
2021/01/10 01:50:46;;;;;;;16.43;11.93;;;;;;;;;;5034242;28;20813;-58
2021/01/10 01:53:12;;;;;;;16.43;11.03;;;;;;;;;;5051845;28;20427;-58
2021/01/10 01:55:38;;;;;;;18.63;11.50;;;;;;;;;;5063037;28;21013;-58
2021/01/10 01:58:07;;;;;;;17.17;11.97;;;;;;;;;;5062310;28;20423;-58
2021/01/10 02:00:33;;;;;;;18.70;12.93;;;;;;;;;;5057869;28;20430;-58
2021/01/10 02:02:59;;;;;;;17.00;11.23;;;;;;;;;;5063049;28;20455;-58
2021/01/10 02:05:27;;;;;;;14.10;11.37;;;;;;;;;;5033063;28;20499;-57
2021/01/10 02:07:57;;;;;;;15.87;11.53;;;;;;;;;;5066783;28;20779;-58
2021/01/10 02:10:30;;;;;;;15.80;11.87;;;;;;;;;;5057433;28;20463;-58
2021/01/10 02:12:59;;;;;;;16.53;10.67;;;;;;;;;;5051266;28;20424;-58
2021/01/10 02:15:27;;;;;;;16.20;11.93;;;;;;;;;;5052212;28;20418;-59
2021/01/10 02:17:54;;;;;;;18.07;11.10;;;;;;;;;;5038326;28;20519;-58
2021/01/10 02:20:33;;;;;;;16.57;11.87;;;;;;;;;;5066067;28;20433;-58
2021/01/10 02:23:17;;;;;;;18.00;11.87;;;;;;;;;;5052140;28;20420;-58
2021/01/10 02:25:44;;;;;;;16.63;11.30;;;;;;;;;;5053929;28;20969;-58
2021/01/10 02:28:11;;;;;;;15.90;12.20;;;;;;;;;;5052747;28;20516;-58
2021/01/10 02:30:38;;;;;;;16.03;11.93;;;;;;;;;;5052029;28;20770;-58
2021/01/10 02:33:06;;;;;;;17.93;12.13;;;;;;;;;;5050761;28;20492;-58
2021/01/10 02:35:34;;;;;;;16.77;10.87;;;;;;;;;;5056860;28;20439;-58
2021/01/10 02:38:19;;;;;;;15.60;10.90;;;;;;;;;;5053468;28;20426;-58
2021/01/10 02:40:57;;;;;;;14.07;11.03;;;;;;;;;;5070137;28;20446;-58
2021/01/10 02:43:25;;;;;;;17.23;11.27;;;;;;;;;;5062256;28;20815;-58
2021/01/10 02:45:52;;;;;;;15.37;11.17;;;;;;;;;;5034601;28;20423;-58
2021/01/10 02:48:19;;;;;;;15.27;11.20;;;;;;;;;;5058646;28;20811;-60
2021/01/10 02:50:45;;;;;;;14.80;10.77;;;;;;;;;;5050410;28;20404;-58
2021/01/10 02:53:11;;;;;;;16.30;11.73;;;;;;;;;;5056244;28;20868;-59
2021/01/10 02:55:38;;;;;;;14.83;10.83;;;;;;;;;;5036601;28;20463;-59
2021/01/10 02:58:09;;;;;;;17.13;11.00;;;;;;;;;;5032700;28;20915;-58
2021/01/10 03:00:35;;;;;;;17.47;11.03;;;;;;;;;;5049629;28;20450;-58
2021/01/10 03:03:02;;;;;;;13.43;10.83;;;;;;;;;;5036377;28;20459;-58
2021/01/10 03:05:30;;;;;;;19.13;11.07;;;;;;;;;;5058935;28;20525;-58
2021/01/10 03:07:56;;;;;;;16.50;10.73;;;;;;;;;;5064876;28;20427;-58
2021/01/10 03:10:23;;;;;;;15.77;10.63;;;;;;;;;;5049674;28;20423;-60
2021/01/10 03:12:49;;;;;;;13.63;10.67;;;;;;;;;;5036859;28;20780;-59
2021/01/10 03:15:15;;;;;;;14.50;10.90;;;;;;;;;;5050457;28;20451;-58
2021/01/10 03:17:41;;;;;;;15.43;10.40;;;;;;;;;;5056686;28;20827;-59
2021/01/10 03:20:09;;;;;;;13.33;10.43;;;;;;;;;;5049859;28;20473;-59
2021/01/10 03:22:35;;;;;;;17.37;11.17;;;;;;;;;;5051970;28;20255;-60
2021/01/10 03:25:01;;;;;;;15.67;10.97;;;;;;;;;;5051198;28;20423;-59
2021/01/10 03:27:27;;;;;;;15.77;10.07;;;;;;;;;;5064117;28;20483;-59
2021/01/10 03:29:54;;;;;;;16.03;10.33;;;;;;;;;;5061581;28;20442;-59
2021/01/10 03:32:20;;;;;;;16.07;11.27;;;;;;;;;;5050293;28;20423;-59
2021/01/10 03:34:46;;;;;;;15.17;10.90;;;;;;;;;;5050107;28;20469;-58
2021/01/10 03:37:12;;;;;;;14.93;11.10;;;;;;;;;;5032348;28;20470;-59
2021/01/10 03:39:39;;;;;;;14.53;10.53;;;;;;;;;;5050830;28;20522;-59
2021/01/10 03:42:05;;;;;;;15.70;11.37;;;;;;;;;;5049699;28;20407;-59
2021/01/10 03:44:31;;;;;;;16.60;11.33;;;;;;;;;;5063770;28;20441;-58
2021/01/10 03:46:57;;;;;;;16.73;10.77;;;;;;;;;;5069227;28;20446;-61
2021/01/10 03:49:23;;;;;;;16.20;10.80;;;;;;;;;;5058657;28;20467;-59
2021/01/10 03:51:49;;;;;;;15.93;11.13;;;;;;;;;;5050009;28;20252;-60
2021/01/10 03:54:15;;;;;;;16.13;10.37;;;;;;;;;;5053654;28;20527;-60
2021/01/10 03:56:41;;;;;;;15.83;11.80;;;;;;;;;;5049550;28;20276;-58
2021/01/10 03:59:07;;;;;;;15.70;11.13;;;;;;;;;;5065148;28;20609;-58
2021/01/10 04:01:33;;;;;;;15.17;10.87;;;;;;;;;;5065179;28;20998;-59
2021/01/10 04:03:59;;;;;;;14.67;9.93;;;;;;;;;;5060589;28;20287;-59
2021/01/10 04:06:25;;;;;;;13.67;9.80;;;;;;;;;;5071546;28;20203;-59
2021/01/10 04:08:53;;;;;;;14.87;10.50;;;;;;;;;;5053555;28;20185;-58
2021/01/10 04:11:19;;;;;;;14.67;10.40;;;;;;;;;;5053664;28;20175;-58
2021/01/10 04:13:45;;;;;;;13.37;10.07;;;;;;;;;;5053186;28;20446;-59
2021/01/10 04:16:12;;;;;;;14.07;10.50;;;;;;;;;;5053468;28;20197;-58
2021/01/10 04:18:38;;;;;;;16.00;10.43;;;;;;;;;;5064013;28;20191;-58
2021/01/10 04:21:04;;;;;;;20.00;11.23;;;;;;;;;;5040734;28;20780;-58
2021/01/10 04:23:30;;;;;;;15.60;10.27;;;;;;;;;;5053126;28;20760;-58
2021/01/10 04:25:56;;;;;;;14.77;11.23;;;;;;;;;;5053209;28;20420;-59
2021/01/10 04:28:22;;;;;;;16.00;10.07;;;;;;;;;;5052478;28;20485;-61
2021/01/10 04:30:49;;;;;;;19.73;11.17;;;;;;;;;;5053955;28;20442;-59
2021/01/10 04:33:15;;;;;;;14.50;10.17;;;;;;;;;;5036564;28;20424;-58
2021/01/10 04:35:41;;;;;;;13.23;10.27;;;;;;;;;;5052867;28;20537;-58
2021/01/10 04:38:07;;;;;;;14.50;9.80;;;;;;;;;;5053306;28;20431;-58
2021/01/10 04:40:33;;;;;;;14.90;11.00;;;;;;;;;;5040448;28;20208;-59
2021/01/10 04:42:59;;;;;;;15.23;10.60;;;;;;;;;;5052899;28;20260;-59
2021/01/10 04:45:25;;;;;;;16.23;10.23;;;;;;;;;;5053327;28;20903;-58
2021/01/10 04:47:51;;;;;;;12.97;9.47;;;;;;;;;;5053432;28;20434;-58
2021/01/10 04:50:18;;;;;;;15.23;10.33;;;;;;;;;;5056512;28;20424;-58
2021/01/10 04:52:45;;;;;;;14.60;10.07;;;;;;;;;;5053073;28;20212;-59
2021/01/10 04:55:12;;;;;;;15.47;10.27;;;;;;;;;;5052189;28;20502;-58
2021/01/10 04:57:41;;;;;;;14.17;9.97;;;;;;;;;;5062099;28;20463;-58
2021/01/10 05:00:10;;;;;;;15.23;10.83;;;;;;;;;;5063170;28;20419;-58
2021/01/10 05:02:41;;;;;;;14.33;9.63;;;;;;;;;;5054409;28;20458;-58
2021/01/10 05:05:07;;;;;;;16.27;10.13;;;;;;;;;;5062646;28;20820;-58
2021/01/10 05:07:35;;;;;;;15.87;10.60;;;;;;;;;;5045776;28;20431;-60
2021/01/10 05:10:01;;;;;;;15.80;10.43;;;;;;;;;;5034518;28;20427;-59
2021/01/10 05:12:28;;;;;;;13.37;10.03;;;;;;;;;;5052994;28;21029;-58
2021/01/10 05:14:54;;;;;;;12.47;9.87;;;;;;;;;;5068861;28;20422;-58
2021/01/10 05:17:20;;;;;;;14.60;9.90;;;;;;;;;;5073270;28;21049;-58
2021/01/10 05:19:47;;;;;;;14.57;10.07;;;;;;;;;;5071754;28;20450;-60
2021/01/10 05:22:13;;;;;;;13.03;10.20;;;;;;;;;;5057626;28;20419;-61
2021/01/10 05:24:41;;;;;;;14.83;10.87;;;;;;;;;;5052259;28;20470;-58
2021/01/10 05:27:07;;;;;;;15.30;8.73;;;;;;;;;;5052716;28;20886;-58
2021/01/10 05:29:33;;;;;;;15.83;10.97;;;;;;;;;;5041583;28;20437;-58
2021/01/10 05:32:01;;;;;;;12.70;9.33;;;;;;;;;;5057270;28;20428;-60
2021/01/10 05:34:27;;;;;;;13.37;9.33;;;;;;;;;;5051990;28;20900;-58
2021/01/10 05:36:53;;;;;;;14.90;9.63;;;;;;;;;;5060134;28;20806;-59
2021/01/10 05:39:19;;;;;;;14.23;9.40;;;;;;;;;;5038490;28;20423;-58
2021/01/10 05:41:55;;;;;;;13.27;9.60;;;;;;;;;;5053370;28;20431;-58
2021/01/10 05:44:22;;;;;;;13.13;9.50;;;;;;;;;;5051028;28;20431;-58
2021/01/10 05:46:49;;;;;;;12.73;9.70;;;;;;;;;;5034148;28;20423;-59
2021/01/10 05:49:18;;;;;;;16.53;10.80;;;;;;;;;;5037659;28;20431;-59
2021/01/10 05:51:45;;;;;;;12.13;9.43;;;;;;;;;;5059888;28;20423;-58
2021/01/10 05:54:31;;;;;;;13.13;9.90;;;;;;;;;;5058224;28;20455;-58
2021/01/10 05:56:57;;;;;;;13.10;9.53;;;;;;;;;;5039871;28;20518;-58
2021/01/10 05:59:24;;;;;;;14.50;9.77;;;;;;;;;;5044220;28;20427;-61
2021/01/10 06:01:54;;;;;;;12.70;9.83;;;;;;;;;;5042420;28;20420;-60
2021/01/10 06:04:22;;;;;;;13.60;9.30;;;;;;;;;;5063374;28;20476;-58
2021/01/10 06:06:48;;;;;;;14.37;10.03;;;;;;;;;;5041491;28;20416;-60
2021/01/10 06:09:14;;;;;;;13.57;9.67;;;;;;;;;;5065012;28;20472;-59
2021/01/10 06:11:40;;;;;;;14.53;9.97;;;;;;;;;;5063844;28;20185;-58
2021/01/10 06:14:06;;;;;;;12.23;9.63;;;;;;;;;;5058981;28;20199;-59
2021/01/10 06:16:36;;;;;;;13.90;9.10;;;;;;;;;;5055386;28;20288;-58
2021/01/10 06:19:02;;;;;;;12.27;9.20;;;;;;;;;;5034359;28;20431;-58
2021/01/10 06:21:29;;;;;;;13.40;9.93;;;;;;;;;;5057947;28;20423;-58
2021/01/10 06:23:57;;;;;;;14.20;9.70;;;;;;;;;;5050740;28;20849;-58
2021/01/10 06:26:24;;;;;;;14.37;10.57;;;;;;;;;;5054231;28;20427;-58
2021/01/10 06:28:54;;;;;;;13.03;9.90;;;;;;;;;;5052553;28;20431;-62
2021/01/10 06:31:24;;;;;;;14.37;10.30;;;;;;;;;;5058615;28;20451;-58
2021/01/10 06:34:04;;;;;;;13.53;9.63;;;;;;;;;;5053942;28;20809;-59
2021/01/10 06:36:31;;;;;;;13.10;9.77;;;;;;;;;;5050760;28;20463;-58
2021/01/10 06:39:02;;;;;;;14.53;9.97;;;;;;;;;;5038357;28;20481;-58
2021/01/10 06:41:28;;;;;;;13.77;10.73;;;;;;;;;;5050465;28;20416;-58
2021/01/10 06:44:03;;;;;;;12.47;10.23;;;;;;;;;;5031359;28;20523;-60
2021/01/10 06:46:30;;;;;;;12.00;9.80;;;;;;;;;;5037188;28;20934;-60
2021/01/10 06:48:56;;;;;;;15.63;11.30;;;;;;;;;;5034807;28;20436;-58
2021/01/10 06:51:22;;;;;;;14.80;10.40;;;;;;;;;;5050107;28;20431;-59
2021/01/10 06:53:49;;;;;;;14.20;9.50;;;;;;;;;;5052627;28;20928;-58
2021/01/10 06:56:16;;;;;;;15.67;10.63;;;;;;;;;;5033449;28;20452;-59
2021/01/10 06:59:00;;;;;;;13.23;9.00;;;;;;;;;;5052610;28;20537;-59
2021/01/10 07:01:46;;;;;;;14.40;10.47;;;;;;;;;;5059178;28;20415;-60
2021/01/10 07:04:12;;;;;;;14.93;10.80;;;;;;;;;;5032603;28;20456;-59
2021/01/10 07:06:45;;;;;;;15.20;11.23;;;;;;;;;;5052967;28;21055;-58
2021/01/10 07:09:12;;;;;;;12.90;10.00;;;;;;;;;;5031334;28;20423;-58
2021/01/10 07:11:38;;;;;;;17.23;11.40;;;;;;;;;;5056029;28;20427;-58
2021/01/10 07:14:04;;;;;;;16.50;10.97;;;;;;;;;;5055881;28;20411;-58
2021/01/10 07:16:30;;;;;;;16.10;11.23;;;;;;;;;;5048746;28;20936;-58
2021/01/10 07:18:57;;;;;;;16.50;10.80;;;;;;;;;;5049041;28;20261;-58
2021/01/10 07:21:30;;;;;;;15.80;11.23;;;;;;;;;;5056320;28;20523;-58
2021/01/10 07:24:20;;;;;;;14.53;10.57;;;;;;;;;;5054575;28;20446;-58
2021/01/10 07:26:47;;;;;;;18.10;11.03;;;;;;;;;;5034716;28;20432;-58
2021/01/10 07:29:43;;;;;;;15.03;10.47;;;;;;;;;;5055768;28;20454;-58
2021/01/10 07:32:19;;;;;;;14.40;10.90;;;;;;;;;;5018861;28;20435;-58
2021/01/10 07:34:45;;;;;;;15.70;11.90;;;;;;;;;;5060188;28;20407;-59
2021/01/10 07:37:17;;;;;;;13.90;10.43;;;;;;;;;;5064559;28;20481;-58
2021/01/10 07:39:50;;;;;;;17.60;11.13;;;;;;;;;;5037291;28;20228;-58
2021/01/10 07:42:17;;;;;;;16.53;11.60;;;;;;;;;;5057485;28;20994;-59
2021/01/10 07:44:51;;;;;;;14.97;10.80;;;;;;;;;;5051675;28;20438;-58
2021/01/10 07:47:17;;;;;;;18.13;11.57;;;;;;;;;;5060894;28;20439;-60
2021/01/10 07:49:56;;;;;;;18.30;12.13;;;;;;;;;;5035750;28;20782;-58
2021/01/10 07:52:41;;;;;;;16.33;12.17;;;;;;;;;;5043028;28;20431;-58
2021/01/10 07:55:20;;;;;;;16.57;11.37;;;;;;;;;;5058912;28;21178;-58
2021/01/10 07:57:49;;;;;;;17.53;12.20;;;;;;;;;;5056870;28;20558;-59
2021/01/10 08:00:16;;;;;;;17.77;12.80;;;;;;;;;;5059525;28;20435;-58
2021/01/10 08:02:53;;;;;;;19.63;12.30;;;;;;;;;;5052155;28;20455;-59
2021/01/10 08:05:22;;;;;;;18.60;12.03;;;;;;;;;;5039818;28;20437;-58
2021/01/10 08:07:56;;;;;;;21.47;12.37;;;;;;;;;;5064315;28;20418;-58
2021/01/10 08:10:23;;;;;;;17.43;12.27;;;;;;;;;;5064928;28;20453;-58
2021/01/10 08:12:49;;;;;;;20.60;11.80;;;;;;;;;;5065909;28;20433;-58
2021/01/10 08:15:17;;;;;;;18.07;12.90;;;;;;;;;;5063375;28;20438;-58
2021/01/10 08:17:43;;;;;;;16.47;11.93;;;;;;;;;;5066820;28;20537;-58
2021/01/10 08:20:09;;;;;;;15.97;11.67;;;;;;;;;;5068555;28;20523;-58
2021/01/10 08:22:37;;;;;;;17.40;12.10;;;;;;;;;;5059080;28;20177;-59
2021/01/10 08:25:03;;;;;;;19.40;12.07;;;;;;;;;;5054389;28;20423;-59
2021/01/10 08:27:30;;;;;;;18.60;12.47;;;;;;;;;;5060600;28;20426;-58
2021/01/10 08:29:56;;;;;;;19.20;13.37;;;;;;;;;;5039549;28;20442;-59
2021/01/10 08:32:22;;;;;;;20.80;13.30;;;;;;;;;;5038388;28;20519;-58
2021/01/10 08:34:50;;;;;;;18.00;12.53;;;;;;;;;;5062234;28;20490;-58
2021/01/10 08:37:19;;;;;;;18.83;13.17;;;;;;;;;;5059837;28;20461;-60
2021/01/10 08:39:56;;;;;;;18.87;12.80;;;;;;;;;;5058231;28;20481;-58
2021/01/10 08:42:22;;;;;;;17.77;12.53;;;;;;;;;;5052323;28;20419;-59
2021/01/10 08:44:48;;;;;;;16.37;12.90;;;;;;;;;;5052141;28;20778;-59
2021/01/10 08:47:14;;;;;;;19.67;13.67;;;;;;;;;;5051732;28;20177;-59
2021/01/10 08:49:40;;;;;;;20.23;13.27;;;;;;;;;;5057576;28;20500;-58
2021/01/10 08:52:06;;;;;;;18.93;12.63;;;;;;;;;;5052278;28;20430;-58
2021/01/10 08:54:33;;;;;;;19.40;13.23;;;;;;;;;;5061187;28;20434;-58
2021/01/10 08:56:59;;;;;;;18.87;12.20;;;;;;;;;;5054716;28;20953;-59
2021/01/10 08:59:38;;;;;;;15.97;12.43;;;;;;;;;;5050152;28;20424;-58
2021/01/10 09:02:07;;;;;;;18.90;12.07;;;;;;;;;;5058090;28;20785;-58
2021/01/10 09:04:38;;;;;;;18.23;11.90;;;;;;;;;;5057371;28;20417;-59
2021/01/10 09:07:10;;;;;;;21.50;13.03;;;;;;;;;;5054377;28;21331;-58
2021/01/10 09:09:54;;;;;;;17.93;13.00;;;;;;;;;;5050588;28;20489;-59
2021/01/10 09:12:30;;;;;;;17.30;11.73;;;;;;;;;;5055804;28;20428;-58
2021/01/10 09:15:00;;;;;;;19.60;12.43;;;;;;;;;;5054877;28;20426;-59
2021/01/10 09:17:28;;;;;;;21.07;13.43;;;;;;;;;;5041607;28;21008;-60
2021/01/10 09:20:00;;;;;;;18.67;13.10;;;;;;;;;;5061518;28;20427;-58
2021/01/10 09:22:27;;;;;;;20.37;12.43;;;;;;;;;;5068713;28;20465;-58
2021/01/10 09:24:53;;;;;;;18.70;13.03;;;;;;;;;;5044001;28;20940;-58
2021/01/10 09:27:19;;;;;;;20.43;13.63;;;;;;;;;;5056422;28;20427;-58
2021/01/10 09:29:45;;;;;;;20.53;13.83;;;;;;;;;;5070761;28;20434;-58
2021/01/10 09:32:19;;;;;;;21.80;14.90;;;;;;;;;;5045783;28;20427;-58
2021/01/10 09:34:46;;;;;;;22.97;13.67;;;;;;;;;;5081408;28;20175;-59
2021/01/10 09:37:13;;;;;;;19.07;13.63;;;;;;;;;;5069257;28;20466;-58
2021/01/10 09:39:40;;;;;;;20.77;14.40;;;;;;;;;;5058436;28;20423;-58
2021/01/10 09:42:06;;;;;;;22.53;14.23;;;;;;;;;;5036285;28;20424;-59
2021/01/10 09:44:33;;;;;;;24.37;13.93;;;;;;;;;;5049752;28;20477;-58
2021/01/10 09:46:59;;;;;;;19.87;14.97;;;;;;;;;;5042941;28;20431;-59
2021/01/10 09:49:30;;;;;;;22.07;14.03;;;;;;;;;;5054299;28;20431;-58
2021/01/10 09:51:56;;;;;;;22.30;15.37;;;;;;;;;;5055365;28;20454;-58
2021/01/10 09:54:26;;;;;;;20.00;13.87;;;;;;;;;;5037688;28;20515;-59
2021/01/10 09:56:56;;;;;;;20.23;14.00;;;;;;;;;;5053874;28;20204;-59
2021/01/10 09:59:41;;;;;;;24.23;15.80;;;;;;;;;;5049522;28;20428;-58
2021/01/10 10:02:16;;;;;;;22.13;14.67;;;;;;;;;;5032692;28;20452;-59
2021/01/10 10:04:45;;;;;;;22.03;14.77;;;;;;;;;;5052875;28;20426;-59
2021/01/10 10:07:11;;;;;;;25.60;15.27;;;;;;;;;;5046899;28;20444;-58
2021/01/10 10:09:47;;;;;;;23.33;14.63;;;;;;;;;;5052674;28;20427;-59
2021/01/10 10:12:13;;;;;;;23.27;14.63;;;;;;;;;;5040314;28;20427;-58
2021/01/10 10:14:49;;;;;;;21.27;13.83;;;;;;;;;;5057074;28;20433;-59
2021/01/10 10:17:15;;;;;;;20.63;14.23;;;;;;;;;;5069450;28;20537;-58
2021/01/10 10:19:41;;;;;;;25.30;15.40;;;;;;;;;;5070132;28;20459;-59
2021/01/10 10:22:23;;;;;;;23.60;16.00;;;;;;;;;;5040971;28;20415;-59
2021/01/10 10:24:50;;;;;;;20.50;14.20;;;;;;;;;;5061252;28;20856;-58
2021/01/10 10:27:16;;;;;;;21.90;15.37;;;;;;;;;;5055785;28;20428;-58
2021/01/10 10:29:42;;;;;;;24.40;16.63;;;;;;;;;;5069704;28;20426;-61
2021/01/10 10:32:08;;;;;;;24.03;15.53;;;;;;;;;;5068481;28;20440;-59
2021/01/10 10:34:35;;;;;;;24.90;14.33;;;;;;;;;;5055967;28;20426;-59
2021/01/10 10:37:01;;;;;;;23.93;15.73;;;;;;;;;;5049345;28;20525;-59
2021/01/10 10:39:27;;;;;;;22.07;15.40;;;;;;;;;;5037637;28;20420;-59
2021/01/10 10:41:53;;;;;;;25.17;15.87;;;;;;;;;;5062105;28;20524;-58
2021/01/10 10:44:19;;;;;;;22.20;15.10;;;;;;;;;;5058890;28;20427;-58
2021/01/10 10:46:45;;;;;;;23.40;16.37;;;;;;;;;;5050785;28;20922;-58
2021/01/10 10:49:12;;;;;;;26.10;16.50;;;;;;;;;;5061796;28;20418;-58
2021/01/10 10:51:38;;;;;;;27.30;16.53;;;;;;;;;;5056873;28;20926;-59
2021/01/10 10:54:04;;;;;;;25.07;16.07;;;;;;;;;;5058181;28;20418;-58
2021/01/10 10:56:37;;;;;;;25.10;16.30;;;;;;;;;;5037601;28;21184;-59
2021/01/10 10:59:03;;;;;;;22.33;15.90;;;;;;;;;;5056888;28;20510;-60
2021/01/10 11:01:39;;;;;;;24.27;15.83;;;;;;;;;;5055832;28;20926;-59
2021/01/10 11:04:05;;;;;;;23.97;15.87;;;;;;;;;;5054138;28;20474;-58
2021/01/10 11:06:31;;;;;;;24.13;15.77;;;;;;;;;;5056122;28;20933;-59
2021/01/10 11:08:57;;;;;;;21.80;15.67;;;;;;;;;;5058245;28;20441;-58
2021/01/10 11:11:23;;;;;;;21.30;15.50;;;;;;;;;;5036202;28;20189;-59
2021/01/10 11:13:50;;;;;;;25.80;16.97;;;;;;;;;;5059100;28;20263;-59
2021/01/10 11:16:18;;;;;;;23.17;16.50;;;;;;;;;;5065647;28;21010;-58
2021/01/10 11:18:44;;;;;;;20.77;16.07;;;;;;;;;;5057786;28;20408;-59
2021/01/10 11:21:10;;;;;;;22.33;15.27;;;;;;;;;;5058581;28;20413;-59
2021/01/10 11:23:36;;;;;;;23.50;15.23;;;;;;;;;;5051690;28;20782;-59
2021/01/10 11:26:04;;;;;;;24.30;16.47;;;;;;;;;;5058428;28;20446;-59
2021/01/10 11:28:30;;;;;;;24.53;15.97;;;;;;;;;;5049040;28;20181;-58
2021/01/10 11:30:56;;;;;;;21.20;14.97;;;;;;;;;;5050125;28;20420;-59
2021/01/10 11:33:22;;;;;;;22.93;14.73;;;;;;;;;;5054282;28;20468;-58
2021/01/10 11:35:48;;;;;;;22.33;14.10;;;;;;;;;;5065345;28;20191;-59
2021/01/10 11:38:14;;;;;;;23.63;15.50;;;;;;;;;;5069728;28;20980;-58
2021/01/10 11:40:40;;;;;;;25.43;14.47;;;;;;;;;;5069698;28;20465;-58
2021/01/10 11:43:06;;;;;;;17.73;13.37;;;;;;;;;;5090066;28;20397;-58
2021/01/10 11:45:32;;;;;;;23.13;14.07;;;;;;;;;;5089745;28;20572;-59
2021/01/10 11:47:58;;;;;;;19.17;14.13;;;;;;;;;;5067135;28;20418;-58
2021/01/10 11:50:26;;;;;;;26.83;15.83;;;;;;;;;;5060330;28;20180;-59
2021/01/10 11:52:52;;;;;;;23.20;14.00;;;;;;;;;;5044771;28;20535;-59
2021/01/10 11:55:18;;;;;;;21.87;14.23;;;;;;;;;;5064205;28;21232;-59
2021/01/10 11:57:44;;;;;;;19.70;14.33;;;;;;;;;;5050826;28;20463;-59
2021/01/10 12:00:10;;;;;;;19.97;13.60;;;;;;;;;;5049305;28;20173;-59
2021/01/10 12:02:36;;;;;;;22.70;14.57;;;;;;;;;;5035134;28;20224;-59
2021/01/10 12:05:02;;;;;;;22.03;15.00;;;;;;;;;;5049329;28;20788;-59
2021/01/10 12:07:28;;;;;;;18.37;13.83;;;;;;;;;;5040734;28;20435;-59
2021/01/10 12:09:54;;;;;;;17.90;13.40;;;;;;;;;;5055878;28;20296;-59
2021/01/10 12:12:20;;;;;;;18.77;12.83;;;;;;;;;;5056912;28;20514;-59
2021/01/10 12:14:46;;;;;;;20.50;14.03;;;;;;;;;;5029592;28;20235;-58
2021/01/10 12:17:12;;;;;;;20.13;14.53;;;;;;;;;;5030295;28;20977;-59
2021/01/10 12:19:38;;;;;;;18.33;13.07;;;;;;;;;;5048546;28;20205;-60
2021/01/10 12:22:04;;;;;;;19.77;13.67;;;;;;;;;;5051884;28;20554;-59
2021/01/10 12:24:30;;;;;;;17.83;13.73;;;;;;;;;;5052229;28;20755;-59
2021/01/10 12:26:56;;;;;;;18.37;13.40;;;;;;;;;;5044950;28;20426;-59
2021/01/10 12:29:22;;;;;;;16.73;12.47;;;;;;;;;;5052306;28;20561;-59
2021/01/10 12:31:48;;;;;;;17.03;13.47;;;;;;;;;;5037425;28;20431;-59
2021/01/10 12:34:14;;;;;;;20.47;12.83;;;;;;;;;;5055112;28;21020;-59
2021/01/10 12:36:41;;;;;;;18.63;13.80;;;;;;;;;;5054153;28;20204;-59
2021/01/10 12:39:07;;;;;;;20.23;14.70;;;;;;;;;;5051857;28;20434;-59
2021/01/10 12:41:33;;;;;;;19.17;14.37;;;;;;;;;;5057153;28;20505;-61
2021/01/10 12:43:59;;;;;;;18.90;13.53;;;;;;;;;;5045186;28;20688;-59
2021/01/10 12:46:29;;;;;;;17.93;13.70;;;;;;;;;;5047718;28;20203;-59
2021/01/10 12:48:55;;;;;;;17.50;12.97;;;;;;;;;;5035957;28;20188;-59
2021/01/10 12:51:22;;;;;;;16.97;12.87;;;;;;;;;;5056523;28;20414;-59
2021/01/10 12:53:48;;;;;;;18.10;12.80;;;;;;;;;;5065306;28;20177;-60
2021/01/10 12:56:15;;;;;;;18.53;12.60;;;;;;;;;;5067729;28;20457;-59
2021/01/10 12:58:41;;;;;;;20.17;13.73;;;;;;;;;;5055924;28;20573;-59
2021/01/10 13:01:07;;;;;;;19.40;13.20;;;;;;;;;;5052288;28;20481;-59
2021/01/10 13:03:34;;;;;;;20.17;14.03;;;;;;;;;;5063666;28;20587;-61
2021/01/10 13:06:00;;;;;;;20.27;13.73;;;;;;;;;;5071161;28;20434;-59
2021/01/10 13:08:26;;;;;;;16.93;13.73;;;;;;;;;;5060327;28;20961;-60
2021/01/10 13:10:52;;;;;;;18.67;13.40;;;;;;;;;;5060171;28;20478;-59
2021/01/10 13:13:18;;;;;;;18.10;12.20;;;;;;;;;;5038687;28;20945;-59
2021/01/10 13:15:44;;;;;;;17.85;13.30;;;;;;;;;;5070714;28;20180;-59
2021/01/10 13:18:10;;;;;;;19.03;14.40;;;;;;;;;;5055910;28;20460;-59
2021/01/10 13:20:36;;;;;;;21.53;14.53;;;;;;;;;;5033733;28;20208;-59
2021/01/10 13:23:02;;;;;;;20.27;12.93;;;;;;;;;;5051412;28;20232;-58
2021/01/10 13:25:29;;;;;;;20.30;13.33;;;;;;;;;;5056574;28;20427;-59
2021/01/10 13:27:55;;;;;;;17.67;12.67;;;;;;;;;;5055548;28;20999;-60
2021/01/10 13:30:21;;;;;;;20.07;12.93;;;;;;;;;;5032512;28;20741;-59
2021/01/10 13:32:47;;;;;;;19.27;13.37;;;;;;;;;;5056482;28;20419;-61
2021/01/10 13:35:13;;;;;;;20.43;12.77;;;;;;;;;;5053235;28;20423;-58
2021/01/10 13:37:40;;;;;;;17.57;14.20;;;;;;;;;;5060388;28;20466;-60
2021/01/10 13:40:06;;;;;;;17.43;13.57;;;;;;;;;;5061128;28;20260;-59
2021/01/10 13:42:32;;;;;;;18.50;12.87;;;;;;;;;;5051072;28;20424;-59
2021/01/10 13:44:59;;;;;;;19.60;13.77;;;;;;;;;;5050030;28;20411;-60
2021/01/10 13:47:25;;;;;;;21.20;15.20;;;;;;;;;;5056084;28;20242;-59
2021/01/10 13:49:51;;;;;;;18.90;13.73;;;;;;;;;;5065675;28;20517;-59
2021/01/10 13:52:17;;;;;;;23.60;13.87;;;;;;;;;;5059848;28;20434;-58
2021/01/10 13:54:43;;;;;;;21.40;14.17;;;;;;;;;;5031527;28;20500;-58
2021/01/10 13:57:11;;;;;;;28.30;14.63;;;;;;;;;;5046805;28;20469;-59
2021/01/10 13:59:37;;;;;;;20.03;13.23;;;;;;;;;;5050949;28;20561;-58
2021/01/10 14:02:05;;;;;;;21.30;14.83;;;;;;;;;;5050641;28;20404;-58
2021/01/10 14:04:31;;;;;;;23.03;14.33;;;;;;;;;;5050715;28;20415;-58
2021/01/10 14:07:00;;;;;;;21.60;14.10;;;;;;;;;;5050891;28;20757;-58
2021/01/10 14:09:26;;;;;;;23.90;14.30;;;;;;;;;;5053457;28;20813;-59
2021/01/10 14:11:52;;;;;;;24.97;14.13;;;;;;;;;;5067658;28;20996;-59
2021/01/10 14:14:18;;;;;;;22.13;13.90;;;;;;;;;;5061601;28;20465;-58
2021/01/10 14:16:44;;;;;;;24.13;12.33;;;;;;;;;;5070632;28;20286;-59
2021/01/10 14:19:10;;;;;;;24.83;14.53;;;;;;;;;;5044752;28;20660;-58
2021/01/10 14:21:40;;;;;;;23.87;14.90;;;;;;;;;;5053506;28;20420;-58